createdAt,value
2022-09-12T00:00:34.177Z,12.01
2022-09-12T00:01:34.231Z,11.99
2022-09-12T00:02:34.160Z,11.94
2022-09-12T00:03:34.189Z,11.93
2022-09-12T00:04:34.142Z,11.93
2022-09-12T00:05:34.137Z,11.93
2022-09-12T00:06:34.133Z,11.90
2022-09-12T00:07:34.112Z,11.89
2022-09-12T00:08:34.079Z,11.90
2022-09-12T00:09:34.079Z,11.90
2022-09-12T00:10:34.064Z,11.90
2022-09-12T00:11:34.066Z,11.90
2022-09-12T00:12:34.041Z,11.89
2022-09-12T00:13:37.276Z,11.87
2022-09-12T00:14:35.122Z,11.86
2022-09-12T00:15:33.994Z,11.86
2022-09-12T00:16:34.714Z,11.86
2022-09-12T00:17:33.964Z,11.86
2022-09-12T00:18:34.711Z,11.86
2022-09-12T00:19:33.947Z,11.87
2022-09-12T00:20:33.942Z,11.89
2022-09-12T00:21:33.928Z,11.87
2022-09-12T00:22:33.887Z,11.87
2022-09-12T00:23:33.882Z,11.87
2022-09-12T00:24:33.888Z,11.87
2022-09-12T00:25:33.869Z,11.87
2022-09-12T00:26:33.963Z,11.87
2022-09-12T00:27:33.826Z,11.89
2022-09-12T00:28:33.828Z,11.90
2022-09-12T00:29:33.797Z,11.93
2022-09-12T00:30:33.801Z,11.94
2022-09-12T00:31:33.816Z,11.96
2022-09-12T00:32:34.080Z,11.97
2022-09-12T00:33:33.760Z,11.97
2022-09-12T00:34:33.730Z,11.96
2022-09-12T00:35:33.741Z,11.93
2022-09-12T00:36:33.721Z,11.94
2022-09-12T00:37:33.699Z,11.94
2022-09-12T00:38:33.809Z,11.93
2022-09-12T00:39:33.682Z,11.90
2022-09-12T00:40:33.649Z,11.86
2022-09-12T00:41:33.650Z,11.83
2022-09-12T00:42:33.643Z,11.82
2022-09-12T00:43:33.644Z,11.77
2022-09-12T00:44:33.607Z,11.75
2022-09-12T00:45:33.630Z,11.74
2022-09-12T00:46:33.571Z,11.72
2022-09-12T00:47:33.562Z,11.71
2022-09-12T00:48:33.555Z,11.68
2022-09-12T00:49:33.541Z,11.68
2022-09-12T00:50:33.540Z,11.68
2022-09-12T00:51:33.536Z,11.70
2022-09-12T00:52:33.495Z,11.68
2022-09-12T00:53:33.499Z,11.67
2022-09-12T00:54:33.489Z,11.65
2022-09-12T00:55:33.464Z,11.65
2022-09-12T00:56:33.458Z,11.64
2022-09-12T00:57:33.459Z,11.61
2022-09-12T00:58:33.415Z,11.62
2022-09-12T00:59:33.414Z,11.61
2022-09-12T01:00:33.409Z,11.59
2022-09-12T01:01:33.499Z,11.59
2022-09-12T01:02:33.370Z,11.61
2022-09-12T01:03:33.370Z,11.61
2022-09-12T01:04:33.367Z,11.61
2022-09-12T01:05:33.342Z,11.57
2022-09-12T01:06:33.333Z,11.59
2022-09-12T01:07:35.810Z,11.56
2022-09-12T01:08:34.314Z,11.57
2022-09-12T01:09:33.265Z,11.56
2022-09-12T01:10:33.404Z,11.57
2022-09-12T01:11:34.093Z,11.57
2022-09-12T01:12:33.229Z,11.57
2022-09-12T01:13:33.212Z,11.57
2022-09-12T01:14:33.221Z,11.61
2022-09-12T01:15:33.918Z,11.64
2022-09-12T01:16:33.261Z,11.65
2022-09-12T01:17:33.174Z,11.62
2022-09-12T01:18:33.159Z,11.62
2022-09-12T01:19:33.132Z,11.61
2022-09-12T01:20:33.136Z,11.57
2022-09-12T01:21:33.112Z,11.57
2022-09-12T01:22:33.116Z,11.54
2022-09-12T01:23:33.087Z,11.52
2022-09-12T01:24:33.071Z,11.52
2022-09-12T01:25:33.077Z,11.53
2022-09-12T01:26:33.044Z,11.50
2022-09-12T01:27:33.061Z,11.47
2022-09-12T01:28:33.038Z,11.46
2022-09-12T01:29:33.008Z,11.43
2022-09-12T01:30:33.009Z,11.39
2022-09-12T01:31:32.965Z,11.36
2022-09-12T01:32:32.988Z,11.34
2022-09-12T01:33:32.948Z,11.34
2022-09-12T01:34:33.928Z,11.29
2022-09-12T01:35:32.930Z,11.31
2022-09-12T01:36:32.904Z,11.29
2022-09-12T01:37:32.902Z,11.24
2022-09-12T01:38:33.027Z,11.21
2022-09-12T01:39:32.858Z,11.17
2022-09-12T01:40:32.871Z,11.16
2022-09-12T01:41:33.797Z,11.14
2022-09-12T01:42:32.849Z,11.13
2022-09-12T01:43:32.829Z,11.13
2022-09-12T01:44:33.763Z,11.11
2022-09-12T01:45:32.813Z,11.10
2022-09-12T01:46:32.793Z,11.09
2022-09-12T01:47:32.764Z,11.07
2022-09-12T01:48:32.748Z,11.07
2022-09-12T01:49:32.743Z,11.07
2022-09-12T01:50:32.721Z,11.07
2022-09-12T01:51:32.712Z,11.07
2022-09-12T01:52:32.717Z,11.10
2022-09-12T01:53:32.678Z,11.10
2022-09-12T01:54:32.805Z,11.13
2022-09-12T01:55:32.662Z,11.11
2022-09-12T01:56:32.645Z,11.09
2022-09-12T01:57:33.345Z,11.07
2022-09-12T01:58:32.611Z,11.02
2022-09-12T01:59:32.585Z,11.01
2022-09-12T02:00:32.716Z,11.01
2022-09-12T02:01:32.642Z,11.01
2022-09-12T02:02:32.571Z,11.01
2022-09-12T02:03:32.548Z,10.98
2022-09-12T02:04:34.396Z,10.98
2022-09-12T02:05:32.539Z,10.96
2022-09-12T02:06:32.512Z,10.95
2022-09-12T02:07:32.476Z,10.92
2022-09-12T02:08:32.491Z,10.89
2022-09-12T02:09:32.482Z,10.89
2022-09-12T02:10:32.886Z,10.88
2022-09-12T02:11:32.449Z,10.89
2022-09-12T02:12:32.426Z,10.89
2022-09-12T02:13:33.373Z,10.89
2022-09-12T02:14:33.088Z,10.91
2022-09-12T02:15:32.378Z,10.88
2022-09-12T02:16:32.405Z,10.86
2022-09-12T02:17:32.362Z,10.84
2022-09-12T02:18:32.337Z,10.84
2022-09-12T02:19:32.318Z,10.83
2022-09-12T02:20:47.494Z,10.83
2022-09-12T02:21:33.410Z,10.83
2022-09-12T02:22:32.293Z,10.83
2022-09-12T02:23:32.281Z,10.81
2022-09-12T02:24:32.260Z,10.81
2022-09-12T02:25:32.245Z,10.81
2022-09-12T02:26:32.229Z,10.81
2022-09-12T02:27:32.222Z,10.81
2022-09-12T02:28:32.215Z,10.81
2022-09-12T02:29:32.182Z,10.80
2022-09-12T02:30:32.278Z,10.80
2022-09-12T02:31:32.166Z,10.80
2022-09-12T02:32:32.152Z,10.78
2022-09-12T02:33:32.124Z,10.78
2022-09-12T02:34:32.138Z,10.80
2022-09-12T02:35:32.116Z,10.83
2022-09-12T02:36:32.101Z,10.84
2022-09-12T02:37:32.202Z,10.81
2022-09-12T02:38:32.065Z,10.83
2022-09-12T02:39:32.045Z,10.81
2022-09-12T02:40:32.058Z,10.83
2022-09-12T02:41:32.029Z,10.84
2022-09-12T02:42:32.029Z,10.84
2022-09-12T02:43:32.039Z,10.86
2022-09-12T02:44:31.995Z,10.84
2022-09-12T02:45:32.022Z,10.84
2022-09-12T02:46:31.957Z,10.84
2022-09-12T02:47:32.628Z,10.84
2022-09-12T02:48:32.822Z,10.81
2022-09-12T02:49:32.061Z,10.81
2022-09-12T02:50:31.917Z,10.81
2022-09-12T02:51:31.892Z,10.78
2022-09-12T02:52:31.894Z,10.78
2022-09-12T02:53:31.859Z,10.77
2022-09-12T02:54:32.815Z,10.76
2022-09-12T02:55:31.854Z,10.74
2022-09-12T02:56:32.529Z,10.74
2022-09-12T02:57:31.823Z,10.74
2022-09-12T02:58:31.809Z,10.73
2022-09-12T02:59:31.784Z,10.70
2022-09-12T03:00:31.815Z,10.68
2022-09-12T03:01:31.770Z,10.70
2022-09-12T03:02:31.765Z,10.68
2022-09-12T03:03:31.744Z,10.70
2022-09-12T03:04:31.730Z,10.68
2022-09-12T03:05:31.715Z,10.71
2022-09-12T03:06:31.924Z,10.70
2022-09-12T03:07:31.681Z,10.71
2022-09-12T03:08:31.679Z,10.70
2022-09-12T03:09:31.645Z,10.68
2022-09-12T03:10:31.657Z,10.70
2022-09-12T03:11:31.636Z,10.70
2022-09-12T03:12:31.725Z,10.68
2022-09-12T03:13:31.609Z,10.70
2022-09-12T03:14:31.595Z,10.66
2022-09-12T03:15:31.569Z,10.65
2022-09-12T03:16:31.683Z,10.60
2022-09-12T03:17:31.544Z,10.58
2022-09-12T03:18:31.592Z,10.56
2022-09-12T03:19:31.534Z,10.55
2022-09-12T03:20:31.505Z,10.52
2022-09-12T03:21:31.490Z,10.55
2022-09-12T03:22:31.491Z,10.53
2022-09-12T03:23:31.471Z,10.51
2022-09-12T03:24:31.457Z,10.47
2022-09-12T03:25:31.450Z,10.51
2022-09-12T03:26:31.438Z,10.47
2022-09-12T03:27:31.408Z,10.46
2022-09-12T03:28:31.414Z,10.43
2022-09-12T03:29:31.381Z,10.42
2022-09-12T03:30:31.397Z,10.42
2022-09-12T03:31:31.374Z,10.43
2022-09-12T03:32:31.350Z,10.43
2022-09-12T03:33:31.345Z,10.47
2022-09-12T03:34:31.333Z,10.47
2022-09-12T03:35:32.261Z,10.51
2022-09-12T03:36:31.306Z,10.47
2022-09-12T03:37:31.289Z,10.47
2022-09-12T03:38:32.222Z,10.47
2022-09-12T03:39:32.202Z,10.51
2022-09-12T03:40:31.256Z,10.51
2022-09-12T03:41:31.224Z,10.53
2022-09-12T03:42:31.230Z,10.56
2022-09-12T03:43:31.217Z,10.60
2022-09-12T03:44:31.224Z,10.60
2022-09-12T03:45:31.241Z,10.60
2022-09-12T03:46:31.163Z,10.58
2022-09-12T03:47:31.148Z,10.53
2022-09-12T03:48:31.149Z,10.55
2022-09-12T03:49:31.114Z,10.51
2022-09-12T03:50:31.419Z,10.47
2022-09-12T03:51:31.118Z,10.44
2022-09-12T03:52:31.079Z,10.44
2022-09-12T03:53:31.057Z,10.46
2022-09-12T03:54:31.073Z,10.47
2022-09-12T03:55:31.056Z,10.47
2022-09-12T03:56:31.151Z,10.46
2022-09-12T03:57:31.030Z,10.46
2022-09-12T03:58:31.000Z,10.43
2022-09-12T03:59:30.989Z,10.39
2022-09-12T04:00:30.993Z,10.36
2022-09-12T04:01:30.975Z,10.33
2022-09-12T04:02:30.989Z,10.28
2022-09-12T04:03:30.943Z,10.26
2022-09-12T04:04:30.919Z,10.24
2022-09-12T04:05:30.918Z,10.22
2022-09-12T04:06:30.900Z,10.21
2022-09-12T04:07:30.921Z,10.21
2022-09-12T04:08:30.885Z,10.18
2022-09-12T04:09:30.858Z,10.17
2022-09-12T04:10:30.863Z,10.17
2022-09-12T04:11:30.835Z,10.17
2022-09-12T04:12:30.812Z,10.14
2022-09-12T04:13:30.845Z,10.15
2022-09-12T04:14:30.783Z,10.15
2022-09-12T04:15:30.774Z,10.12
2022-09-12T04:16:30.801Z,10.12
2022-09-12T04:17:30.744Z,10.12
2022-09-12T04:18:30.757Z,10.10
2022-09-12T04:19:31.688Z,10.10
2022-09-12T04:20:30.715Z,10.09
2022-09-12T04:21:30.711Z,10.10
2022-09-12T04:22:30.695Z,10.09
2022-09-12T04:23:30.667Z,10.07
2022-09-12T04:24:30.788Z,10.06
2022-09-12T04:25:30.649Z,10.06
2022-09-12T04:26:30.636Z,10.06
2022-09-12T04:27:30.617Z,10.06
2022-09-12T04:28:30.620Z,10.06
2022-09-12T04:29:30.587Z,10.07
2022-09-12T04:30:30.737Z,10.07
2022-09-12T04:31:30.571Z,10.09
2022-09-12T04:32:30.588Z,10.07
2022-09-12T04:33:30.561Z,10.09
2022-09-12T04:34:30.526Z,10.10
2022-09-12T04:35:30.516Z,10.09
2022-09-12T04:36:30.522Z,10.09
2022-09-12T04:37:30.508Z,10.09
2022-09-12T04:38:30.484Z,10.07
2022-09-12T04:39:30.473Z,10.07
2022-09-12T04:40:30.451Z,10.04
2022-09-12T04:41:30.432Z,10.04
2022-09-12T04:42:30.434Z,10.03
2022-09-12T04:43:30.415Z,10.01
2022-09-12T04:44:30.391Z,10.00
2022-09-12T04:45:30.449Z,9.99
2022-09-12T04:46:30.411Z,9.99
2022-09-12T04:47:30.354Z,9.99
2022-09-12T04:48:30.357Z,9.96
2022-09-12T04:49:30.325Z,9.94
2022-09-12T04:50:30.326Z,9.96
2022-09-12T04:51:30.318Z,9.96
2022-09-12T04:52:30.314Z,9.96
2022-09-12T04:53:31.238Z,9.97
2022-09-12T04:54:30.269Z,10.00
2022-09-12T04:55:30.244Z,10.03
2022-09-12T04:56:30.250Z,10.04
2022-09-12T04:57:30.228Z,10.07
2022-09-12T04:58:30.328Z,10.06
2022-09-12T04:59:30.197Z,10.06
2022-09-12T05:00:30.200Z,10.06
2022-09-12T05:01:30.434Z,10.06
2022-09-12T05:02:30.193Z,10.06
2022-09-12T05:03:31.110Z,10.06
2022-09-12T05:04:30.127Z,10.04
2022-09-12T05:05:30.121Z,10.07
2022-09-12T05:06:30.118Z,10.09
2022-09-12T05:07:30.087Z,10.09
2022-09-12T05:08:30.102Z,10.09
2022-09-12T05:09:30.067Z,10.12
2022-09-12T05:10:30.071Z,10.14
2022-09-12T05:11:46.701Z,10.14
2022-09-12T05:12:31.034Z,10.15
2022-09-12T05:13:30.009Z,10.18
2022-09-12T05:14:30.043Z,10.19
2022-09-12T05:15:29.994Z,10.19
2022-09-12T05:16:29.995Z,10.21
2022-09-12T05:17:29.974Z,10.22
2022-09-12T05:18:29.941Z,10.22
2022-09-12T05:19:29.931Z,10.24
2022-09-12T05:20:30.045Z,10.24
2022-09-12T05:21:29.909Z,10.24
2022-09-12T05:22:29.906Z,10.24
2022-09-12T05:23:29.895Z,10.22
2022-09-12T05:24:29.862Z,10.25
2022-09-12T05:25:30.556Z,10.28
2022-09-12T05:26:29.835Z,10.32
2022-09-12T05:27:29.831Z,10.34
2022-09-12T05:28:29.817Z,10.37
2022-09-12T05:29:29.816Z,10.40
2022-09-12T05:30:29.838Z,10.43
2022-09-12T05:31:29.784Z,10.46
2022-09-12T05:32:29.775Z,10.51
2022-09-12T05:33:29.744Z,10.55
2022-09-12T05:34:29.739Z,10.59
2022-09-12T05:35:29.729Z,10.65
2022-09-12T05:36:29.696Z,10.68
2022-09-12T05:37:29.710Z,10.68
2022-09-12T05:38:29.809Z,10.70
2022-09-12T05:39:29.667Z,10.71
2022-09-12T05:40:29.661Z,10.71
2022-09-12T05:41:29.677Z,10.74
2022-09-12T05:42:29.634Z,10.76
2022-09-12T05:43:29.622Z,10.81
2022-09-12T05:44:29.607Z,10.86
2022-09-12T05:45:29.725Z,10.89
2022-09-12T05:46:29.582Z,10.92
2022-09-12T05:47:29.693Z,10.94
2022-09-12T05:48:29.581Z,10.96
2022-09-12T05:49:29.544Z,10.96
2022-09-12T05:50:29.510Z,11.01
2022-09-12T05:51:29.500Z,11.02
2022-09-12T05:52:29.494Z,11.06
2022-09-12T05:53:29.510Z,11.07
2022-09-12T05:54:31.728Z,11.11
2022-09-12T05:55:29.473Z,11.14
2022-09-12T05:56:29.433Z,11.17
2022-09-12T05:57:29.438Z,11.19
2022-09-12T05:58:29.413Z,11.21
2022-09-12T05:59:29.405Z,11.27
2022-09-12T06:00:33.388Z,11.35
2022-09-12T06:01:29.392Z,11.41
2022-09-12T06:02:29.387Z,11.52
2022-09-12T06:03:29.343Z,11.57
2022-09-12T06:04:29.448Z,11.62
2022-09-12T06:05:29.314Z,11.67
2022-09-12T06:06:29.308Z,11.68
2022-09-12T06:07:29.312Z,11.71
2022-09-12T06:08:29.280Z,11.74
2022-09-12T06:09:29.270Z,11.85
2022-09-12T06:10:29.371Z,11.93
2022-09-12T06:11:29.235Z,12.02
2022-09-12T06:12:29.232Z,12.13
2022-09-12T06:13:29.209Z,12.20
2022-09-12T06:14:29.208Z,12.24
2022-09-12T06:15:29.194Z,12.31
2022-09-12T06:16:29.242Z,12.45
2022-09-12T06:17:29.170Z,12.51
2022-09-12T06:18:29.128Z,12.59
2022-09-12T06:19:29.128Z,12.62
2022-09-12T06:20:29.123Z,12.69
2022-09-12T06:21:29.111Z,12.71
2022-09-12T06:22:29.115Z,12.79
2022-09-12T06:23:29.084Z,12.82
2022-09-12T06:24:29.057Z,12.84
2022-09-12T06:25:29.069Z,12.87
2022-09-12T06:26:29.982Z,12.89
2022-09-12T06:27:29.050Z,12.97
2022-09-12T06:28:29.016Z,13.06
2022-09-12T06:29:28.991Z,13.14
2022-09-12T06:30:29.092Z,13.20
2022-09-12T06:31:28.976Z,13.25
2022-09-12T06:32:28.943Z,13.29
2022-09-12T06:33:29.073Z,13.37
2022-09-12T06:34:28.944Z,13.41
2022-09-12T06:35:28.928Z,13.49
2022-09-12T06:36:28.894Z,13.56
2022-09-12T06:37:28.897Z,13.61
2022-09-12T06:38:28.865Z,13.65
2022-09-12T06:39:28.867Z,13.74
2022-09-12T06:40:28.858Z,13.79
2022-09-12T06:41:28.833Z,13.89
2022-09-12T06:42:28.838Z,13.98
2022-09-12T06:43:28.830Z,14.07
2022-09-12T06:44:28.819Z,14.19
2022-09-12T06:45:28.800Z,14.28
2022-09-12T06:46:28.768Z,14.38
2022-09-12T06:47:28.756Z,14.54
2022-09-12T06:48:28.751Z,14.69
2022-09-12T06:49:28.740Z,14.83
2022-09-12T06:50:28.745Z,14.90
2022-09-12T06:51:28.710Z,15.03
2022-09-12T06:52:28.702Z,15.13
2022-09-12T06:53:28.679Z,15.24
2022-09-12T06:54:28.666Z,15.36
2022-09-12T06:55:28.665Z,15.41
2022-09-12T06:56:28.634Z,15.38
2022-09-12T06:57:28.636Z,15.36
2022-09-12T06:58:28.601Z,15.33
2022-09-12T06:59:28.598Z,15.31
2022-09-12T07:00:28.595Z,15.30
2022-09-12T07:01:28.594Z,15.28
2022-09-12T07:02:28.596Z,15.27
2022-09-12T07:03:28.556Z,15.26
2022-09-12T07:04:28.526Z,15.27
2022-09-12T07:05:28.513Z,15.30
2022-09-12T07:06:28.515Z,15.33
2022-09-12T07:07:28.497Z,15.41
2022-09-12T07:08:28.464Z,15.46
2022-09-12T07:09:28.480Z,15.51
2022-09-12T07:10:28.435Z,15.57
2022-09-12T07:11:28.444Z,15.63
2022-09-12T07:12:28.429Z,15.66
2022-09-12T07:13:28.404Z,15.67
2022-09-12T07:14:28.402Z,15.74
2022-09-12T07:15:28.390Z,15.82
2022-09-12T07:16:28.499Z,15.89
2022-09-12T07:17:28.361Z,15.96
2022-09-12T07:18:29.118Z,16.01
2022-09-12T07:19:28.328Z,16.07
2022-09-12T07:20:28.322Z,16.12
2022-09-12T07:21:28.309Z,16.15
2022-09-12T07:22:28.430Z,16.18
2022-09-12T07:23:28.290Z,16.23
2022-09-12T07:24:28.250Z,16.30
2022-09-12T07:25:28.269Z,16.38
2022-09-12T07:26:28.228Z,16.52
2022-09-12T07:27:28.219Z,16.73
2022-09-12T07:28:28.243Z,16.93
2022-09-12T07:29:37.483Z,16.99
2022-09-12T07:30:29.218Z,17.07
2022-09-12T07:31:28.176Z,17.08
2022-09-12T07:32:28.142Z,17.14
2022-09-12T07:33:28.146Z,17.23
2022-09-12T07:34:28.127Z,17.32
2022-09-12T07:35:28.114Z,17.36
2022-09-12T07:36:28.117Z,17.47
2022-09-12T07:37:28.097Z,17.51
2022-09-12T07:38:28.076Z,17.59
2022-09-12T07:39:28.093Z,17.70
2022-09-12T07:40:28.050Z,17.84
2022-09-12T07:41:28.032Z,17.89
2022-09-12T07:42:28.043Z,18.02
2022-09-12T07:43:28.047Z,18.19
2022-09-12T07:44:27.988Z,18.43
2022-09-12T07:45:28.136Z,18.67
2022-09-12T07:46:27.967Z,18.94
2022-09-12T07:47:27.947Z,19.15
2022-09-12T07:48:28.605Z,19.25
2022-09-12T07:49:27.929Z,19.39
2022-09-12T07:50:27.929Z,19.58
2022-09-12T07:51:27.920Z,19.79
2022-09-12T07:52:27.880Z,19.91
2022-09-12T07:53:27.870Z,19.98
2022-09-12T07:54:27.865Z,20.08
2022-09-12T07:55:27.854Z,20.21
2022-09-12T07:56:31.101Z,20.34
2022-09-12T07:57:27.833Z,20.35
2022-09-12T07:58:27.801Z,20.39
2022-09-12T07:59:48.831Z,20.53
2022-09-12T08:00:28.795Z,20.68
2022-09-12T08:01:27.795Z,20.76
2022-09-12T08:02:27.801Z,20.81
2022-09-12T08:03:27.754Z,20.87
2022-09-12T08:04:27.719Z,20.95
2022-09-12T08:05:27.717Z,21.01
2022-09-12T08:06:27.693Z,20.91
2022-09-12T08:07:27.684Z,20.89
2022-09-12T08:08:27.798Z,20.93
2022-09-12T08:09:27.670Z,21.04
2022-09-12T08:10:27.635Z,21.17
2022-09-12T08:11:27.634Z,21.13
2022-09-12T08:12:28.585Z,21.01
2022-09-12T08:13:27.606Z,20.86
2022-09-12T08:14:27.601Z,20.69
2022-09-12T08:15:27.659Z,20.64
2022-09-12T08:16:27.566Z,20.51
2022-09-12T08:17:27.563Z,20.38
2022-09-12T08:18:27.528Z,20.33
2022-09-12T08:19:27.549Z,20.34
2022-09-12T08:20:28.477Z,20.34
2022-09-12T08:21:27.498Z,20.33
2022-09-12T08:22:27.498Z,20.34
2022-09-12T08:23:27.485Z,20.33
2022-09-12T08:24:27.458Z,20.30
2022-09-12T08:25:27.465Z,20.27
2022-09-12T08:26:27.422Z,20.21
2022-09-12T08:27:27.422Z,20.20
2022-09-12T08:28:27.417Z,20.27
2022-09-12T08:29:27.504Z,20.39
2022-09-12T08:30:27.386Z,20.47
2022-09-12T08:31:27.379Z,20.50
2022-09-12T08:32:27.347Z,20.51
2022-09-12T08:33:27.347Z,20.53
2022-09-12T08:34:27.321Z,20.49
2022-09-12T08:35:27.414Z,20.50
2022-09-12T08:36:27.315Z,20.43
2022-09-12T08:37:27.282Z,20.46
2022-09-12T08:38:27.278Z,20.47
2022-09-12T08:39:27.260Z,20.51
2022-09-12T08:40:27.228Z,20.53
2022-09-12T08:41:27.242Z,20.59
2022-09-12T08:42:27.222Z,20.69
2022-09-12T08:43:27.213Z,20.81
2022-09-12T08:44:27.181Z,20.81
2022-09-12T08:45:27.183Z,20.76
2022-09-12T08:46:27.321Z,20.79
2022-09-12T08:47:27.151Z,20.79
2022-09-12T08:48:27.133Z,20.86
2022-09-12T08:49:27.111Z,20.87
2022-09-12T08:50:27.116Z,20.86
2022-09-12T08:51:27.103Z,20.87
2022-09-12T08:52:27.071Z,20.87
2022-09-12T08:53:27.077Z,20.87
2022-09-12T08:54:27.044Z,20.90
2022-09-12T08:55:27.033Z,20.90
2022-09-12T08:56:31.449Z,20.93
2022-09-12T08:57:27.027Z,20.95
2022-09-12T08:58:26.995Z,20.99
2022-09-12T08:59:26.984Z,21.04
2022-09-12T09:00:26.985Z,21.13
2022-09-12T09:01:27.000Z,21.21
2022-09-12T09:02:27.019Z,21.23
2022-09-12T09:03:26.940Z,21.23
2022-09-12T09:04:28.730Z,21.17
2022-09-12T09:05:26.924Z,21.20
2022-09-12T09:06:26.887Z,21.29
2022-09-12T09:07:26.878Z,21.36
2022-09-12T09:08:26.879Z,21.50
2022-09-12T09:09:28.244Z,21.63
2022-09-12T09:10:26.842Z,21.71
2022-09-12T09:11:26.832Z,21.69
2022-09-12T09:12:26.810Z,21.72
2022-09-12T09:13:26.807Z,21.78
2022-09-12T09:14:26.793Z,21.82
2022-09-12T09:15:26.826Z,21.90
2022-09-12T09:16:26.782Z,21.91
2022-09-12T09:17:26.754Z,21.83
2022-09-12T09:18:26.750Z,21.78
2022-09-12T09:19:26.724Z,21.76
2022-09-12T09:20:26.721Z,21.78
2022-09-12T09:21:26.702Z,21.91
2022-09-12T09:22:26.687Z,22.06
2022-09-12T09:23:26.677Z,22.12
2022-09-12T09:24:26.656Z,22.14
2022-09-12T09:25:26.658Z,22.23
2022-09-12T09:26:26.677Z,22.29
2022-09-12T09:27:42.103Z,22.29
2022-09-12T09:28:27.608Z,22.29
2022-09-12T09:29:26.640Z,22.31
2022-09-12T09:30:26.576Z,22.29
2022-09-12T09:31:26.621Z,22.29
2022-09-12T09:32:26.567Z,22.34
2022-09-12T09:33:26.531Z,22.32
2022-09-12T09:34:26.531Z,22.29
2022-09-12T09:35:26.539Z,22.31
2022-09-12T09:36:26.704Z,22.35
2022-09-12T09:37:26.507Z,22.35
2022-09-12T09:38:26.486Z,22.37
2022-09-12T09:39:26.449Z,22.34
2022-09-12T09:40:26.464Z,22.38
2022-09-12T09:41:26.481Z,22.44
2022-09-12T09:42:26.429Z,22.43
2022-09-12T09:43:26.414Z,22.38
2022-09-12T09:44:26.394Z,22.37
2022-09-12T09:45:26.374Z,22.37
2022-09-12T09:46:26.473Z,22.34
2022-09-12T09:47:26.365Z,22.27
2022-09-12T09:48:27.072Z,22.25
2022-09-12T09:49:26.337Z,22.19
2022-09-12T09:50:26.414Z,22.12
2022-09-12T09:51:26.285Z,22.07
2022-09-12T09:52:26.309Z,22.10
2022-09-12T09:53:26.265Z,22.13
2022-09-12T09:54:26.272Z,22.16
2022-09-12T09:55:26.260Z,22.19
2022-09-12T09:56:26.348Z,22.28
2022-09-12T09:57:26.229Z,22.35
2022-09-12T09:58:26.209Z,22.41
2022-09-12T09:59:26.188Z,22.39
2022-09-12T10:00:26.191Z,22.43
2022-09-12T10:01:26.197Z,22.44
2022-09-12T10:02:26.284Z,22.53
2022-09-12T10:03:26.130Z,22.64
2022-09-12T10:04:26.134Z,22.75
2022-09-12T10:05:26.111Z,22.84
2022-09-12T10:06:26.118Z,22.94
2022-09-12T10:07:26.093Z,23.07
2022-09-12T10:08:26.190Z,23.19
2022-09-12T10:09:26.065Z,23.34
2022-09-12T10:10:26.043Z,23.43
2022-09-12T10:11:26.027Z,23.42
2022-09-12T10:12:26.037Z,23.32
2022-09-12T10:13:26.005Z,23.27
2022-09-12T10:14:26.008Z,23.24
2022-09-12T10:15:25.990Z,23.08
2022-09-12T10:16:25.964Z,22.92
2022-09-12T10:17:25.946Z,22.83
2022-09-12T10:18:25.952Z,22.77
2022-09-12T10:19:31.141Z,22.71
2022-09-12T10:20:25.915Z,22.62
2022-09-12T10:21:25.913Z,22.60
2022-09-12T10:22:25.885Z,22.65
2022-09-12T10:23:25.870Z,22.71
2022-09-12T10:24:25.918Z,22.75
2022-09-12T10:25:25.845Z,22.82
2022-09-12T10:26:25.853Z,22.80
2022-09-12T10:27:25.831Z,22.78
2022-09-12T10:28:25.808Z,22.71
2022-09-12T10:29:25.808Z,22.64
2022-09-12T10:30:25.854Z,22.77
2022-09-12T10:31:25.779Z,23.09
2022-09-12T10:32:30.529Z,23.52
2022-09-12T10:33:26.733Z,23.86
2022-09-12T10:34:25.735Z,23.85
2022-09-12T10:35:25.729Z,23.71
2022-09-12T10:36:25.693Z,23.58
2022-09-12T10:37:25.687Z,23.64
2022-09-12T10:38:25.669Z,23.77
2022-09-12T10:39:25.653Z,23.98
2022-09-12T10:40:25.733Z,24.13
2022-09-12T10:41:25.627Z,24.23
2022-09-12T10:42:25.630Z,24.34
2022-09-12T10:43:25.632Z,24.37
2022-09-12T10:44:25.595Z,24.31
2022-09-12T10:45:25.700Z,24.26
2022-09-12T10:46:25.605Z,24.14
2022-09-12T10:47:25.548Z,24.08
2022-09-12T10:48:25.552Z,24.05
2022-09-12T10:49:25.537Z,23.97
2022-09-12T10:50:25.521Z,23.79
2022-09-12T10:51:25.498Z,23.65
2022-09-12T10:52:25.500Z,23.70
2022-09-12T10:53:25.471Z,23.72
2022-09-12T10:54:25.484Z,24.16
2022-09-12T10:55:25.459Z,24.69
2022-09-12T10:56:25.439Z,25.17
2022-09-12T10:57:25.426Z,25.65
2022-09-12T10:58:25.404Z,25.99
2022-09-12T10:59:25.393Z,26.11
2022-09-12T11:00:25.397Z,26.36
2022-09-12T11:01:25.440Z,26.81
2022-09-12T11:02:25.438Z,27.23
2022-09-12T11:03:25.348Z,27.21
2022-09-12T11:04:25.347Z,27.41
2022-09-12T11:05:25.306Z,27.46
2022-09-12T11:06:25.310Z,27.67
2022-09-12T11:07:25.330Z,27.88
2022-09-12T11:08:25.275Z,27.76
2022-09-12T11:09:25.279Z,27.33
2022-09-12T11:10:25.247Z,27.01
2022-09-12T11:11:25.227Z,26.87
2022-09-12T11:12:25.234Z,26.80
2022-09-12T11:13:25.207Z,26.68
2022-09-12T11:14:25.221Z,26.50
2022-09-12T11:15:25.193Z,26.49
2022-09-12T11:16:25.170Z,26.67
2022-09-12T11:17:25.162Z,26.69
2022-09-12T11:18:25.163Z,26.68
2022-09-12T11:19:25.126Z,26.84
2022-09-12T11:20:25.135Z,26.96
2022-09-12T11:21:25.117Z,27.59
2022-09-12T11:22:28.638Z,28.11
2022-09-12T11:23:26.102Z,28.33
2022-09-12T11:24:25.078Z,28.66
2022-09-12T11:25:25.053Z,28.68
2022-09-12T11:26:25.048Z,28.70
2022-09-12T11:27:25.037Z,28.97
2022-09-12T11:28:25.024Z,29.22
2022-09-12T11:29:25.040Z,29.35
2022-09-12T11:30:24.994Z,29.60
2022-09-12T11:31:24.967Z,30.07
2022-09-12T11:32:24.973Z,30.29
2022-09-12T11:33:24.946Z,30.53
2022-09-12T11:34:24.972Z,30.29
2022-09-12T11:35:24.932Z,29.78
2022-09-12T11:36:24.907Z,29.33
2022-09-12T11:37:24.903Z,28.62
2022-09-12T11:38:24.881Z,27.88
2022-09-12T11:39:24.851Z,27.32
2022-09-12T11:40:24.977Z,26.62
2022-09-12T11:41:24.832Z,25.87
2022-09-12T11:42:24.836Z,25.42
2022-09-12T11:43:24.826Z,25.37
2022-09-12T11:44:24.792Z,25.37
2022-09-12T11:45:24.796Z,25.17
2022-09-12T11:46:24.872Z,25.17
2022-09-12T11:47:24.745Z,25.07
2022-09-12T11:48:24.764Z,25.15
2022-09-12T11:49:24.724Z,25.37
2022-09-12T11:50:24.730Z,25.47
2022-09-12T11:51:24.710Z,25.49
2022-09-12T11:52:24.706Z,25.49
2022-09-12T11:53:24.667Z,25.59
2022-09-12T11:54:24.671Z,25.84
2022-09-12T11:55:24.665Z,25.80
2022-09-12T11:56:24.636Z,25.67
2022-09-12T11:57:24.742Z,25.64
2022-09-12T11:58:24.609Z,25.56
2022-09-12T11:59:24.581Z,25.52
2022-09-12T12:00:24.594Z,25.35
2022-09-12T12:01:24.581Z,25.25
2022-09-12T12:02:24.611Z,25.32
2022-09-12T12:03:24.637Z,25.38
2022-09-12T12:04:24.523Z,25.50
2022-09-12T12:05:24.517Z,25.54
2022-09-12T12:06:24.493Z,25.61
2022-09-12T12:07:24.474Z,25.68
2022-09-12T12:08:24.489Z,25.64
2022-09-12T12:09:24.468Z,25.57
2022-09-12T12:10:24.445Z,25.54
2022-09-12T12:11:24.433Z,25.53
2022-09-12T12:12:24.429Z,25.44
2022-09-12T12:13:24.513Z,25.20
2022-09-12T12:14:24.408Z,25.13
2022-09-12T12:15:24.381Z,25.10
2022-09-12T12:16:24.419Z,25.09
2022-09-12T12:17:24.371Z,25.09
2022-09-12T12:18:24.336Z,25.07
2022-09-12T12:19:24.318Z,25.01
2022-09-12T12:20:24.332Z,24.94
2022-09-12T12:21:24.990Z,24.87
2022-09-12T12:22:24.293Z,24.85
2022-09-12T12:23:24.297Z,24.79
2022-09-12T12:24:24.258Z,24.64
2022-09-12T12:25:28.868Z,24.59
2022-09-12T12:26:25.254Z,24.54
2022-09-12T12:27:24.226Z,24.53
2022-09-12T12:28:24.211Z,24.53
2022-09-12T12:29:24.318Z,24.52
2022-09-12T12:30:24.186Z,24.54
2022-09-12T12:31:24.210Z,24.45
2022-09-12T12:32:24.178Z,24.44
2022-09-12T12:33:24.138Z,24.49
2022-09-12T12:34:24.138Z,24.60
2022-09-12T12:35:24.129Z,24.67
2022-09-12T12:36:24.105Z,24.80
2022-09-12T12:37:24.101Z,24.76
2022-09-12T12:38:24.085Z,24.87
2022-09-12T12:39:24.058Z,24.98
2022-09-12T12:40:24.145Z,25.09
2022-09-12T12:41:24.029Z,25.13
2022-09-12T12:42:24.041Z,25.22
2022-09-12T12:43:24.023Z,25.25
2022-09-12T12:44:24.007Z,25.19
2022-09-12T12:45:24.791Z,25.24
2022-09-12T12:46:24.036Z,25.25
2022-09-12T12:47:23.957Z,25.24
2022-09-12T12:48:23.956Z,25.19
2022-09-12T12:49:23.923Z,25.15
2022-09-12T12:50:24.066Z,25.10
2022-09-12T12:51:23.927Z,25.10
2022-09-12T12:52:23.895Z,25.20